Time;durP1;ratioP1;P1;durP2;ratioP2;P2;SDS_P1;SDS_P2;PMS_P1;PMS_P2;Temp;Humidity;BMP_temperature;BMP_pressure;BME280_temperature;BME280_humidity;BME280_pressure;Samples;Min_cycle;Max_cycle;Signal;HPM_P1;HPM_P2
2021/12/20 00:02:02;;;;;;;9.38;4.60;;;3.70;99.90;;;;;;5076788;28;20100;-66
2021/12/20 00:04:28;;;;;;;6.07;3.67;;;3.80;99.90;;;;;;5076482;28;20457;-66
2021/12/20 00:06:54;;;;;;;8.93;3.70;;;3.70;99.90;;;;;;5076366;28;20025;-66
2021/12/20 00:09:19;;;;;;;5.88;2.83;;;3.70;99.90;;;;;;5076546;28;20111;-66
2021/12/20 00:11:45;;;;;;;7.32;3.40;;;3.80;99.90;;;;;;5076869;28;20089;-66
2021/12/20 00:14:11;;;;;;;8.10;3.78;;;3.70;99.90;;;;;;5076576;28;20430;-66
2021/12/20 00:16:36;;;;;;;6.75;3.60;;;3.70;99.90;;;;;;5058887;28;20032;-65
2021/12/20 00:19:02;;;;;;;9.77;3.83;;;3.80;99.90;;;;;;5058572;28;20460;-66
2021/12/20 00:21:28;;;;;;;8.20;3.97;;;3.80;99.90;;;;;;5076321;28;20028;-66
2021/12/20 00:23:54;;;;;;;6.65;3.63;;;3.80;99.90;;;;;;5075130;28;20027;-65
2021/12/20 00:26:19;;;;;;;5.55;3.33;;;3.80;99.90;;;;;;5058500;28;20081;-66
2021/12/20 00:28:45;;;;;;;7.50;3.63;;;3.90;99.90;;;;;;5075974;28;20072;-66
2021/12/20 00:31:11;;;;;;;5.85;2.85;;;3.90;99.90;;;;;;5075851;28;20028;-66
2021/12/20 00:33:36;;;;;;;7.13;3.90;;;3.90;99.90;;;;;;5058372;28;20032;-65
2021/12/20 00:36:07;;;;;;;6.57;3.25;;;4.00;99.90;;;;;;5075896;28;20085;-66
2021/12/20 00:41:17;;;;;;;5.88;2.58;;;4.10;99.90;;;;;;5076118;28;20089;-66
2021/12/20 00:43:43;;;;;;;4.20;2.80;;;4.10;99.90;;;;;;5058130;28;20054;-66
2021/12/20 00:46:09;;;;;;;5.28;2.65;;;4.10;99.90;;;;;;5076264;28;20445;-66
2021/12/20 00:48:35;;;;;;;5.32;3.65;;;4.10;99.90;;;;;;5075935;28;20161;-66
2021/12/20 00:51:00;;;;;;;4.75;2.72;;;4.20;99.90;;;;;;5075618;28;20031;-65
2021/12/20 00:53:26;;;;;;;5.38;2.60;;;4.20;99.90;;;;;;5057866;28;20063;-65
2021/12/20 00:55:52;;;;;;;5.72;2.45;;;4.20;99.90;;;;;;5057906;28;20120;-65
2021/12/20 00:58:18;;;;;;;6.30;2.30;;;4.20;99.90;;;;;;5075773;28;20060;-65
2021/12/20 01:00:46;;;;;;;4.88;2.20;;;4.20;99.90;;;;;;5075810;28;20374;-66
2021/12/20 01:03:13;;;;;;;4.82;2.70;;;4.20;99.90;;;;;;5075983;28;20060;-66
2021/12/20 01:05:39;;;;;;;6.15;2.75;;;4.20;99.90;;;;;;5057890;28;20429;-66
2021/12/20 01:08:07;;;;;;;5.32;2.90;;;4.10;99.90;;;;;;5057749;28;20036;-67
2021/12/20 01:10:35;;;;;;;6.00;3.28;;;4.00;99.90;;;;;;5075556;28;20078;-67
2021/12/20 01:13:02;;;;;;;3.58;2.25;;;3.80;99.90;;;;;;5057974;28;20020;-67
2021/12/20 01:15:33;;;;;;;6.80;3.30;;;3.70;99.90;;;;;;5057430;28;20472;-67
2021/12/20 01:17:59;;;;;;;6.15;3.22;;;3.60;99.90;;;;;;5058091;28;20028;-67
2021/12/20 01:20:25;;;;;;;7.93;3.42;;;3.60;99.90;;;;;;5057420;28;20020;-67
2021/12/20 01:22:51;;;;;;;6.70;3.58;;;3.50;99.90;;;;;;5074983;28;20107;-67
2021/12/20 01:25:19;;;;;;;6.85;3.72;;;3.50;99.90;;;;;;5074939;28;20040;-68
2021/12/20 01:27:45;;;;;;;6.38;3.45;;;3.40;99.90;;;;;;5057169;28;20056;-67
2021/12/20 01:30:13;;;;;;;6.53;3.53;;;3.40;99.90;;;;;;5075109;28;20082;-67
2021/12/20 01:32:40;;;;;;;7.65;3.67;;;3.40;99.90;;;;;;5080401;28;20101;-67
2021/12/20 01:35:07;;;;;;;9.25;3.92;;;3.40;99.90;;;;;;5093618;28;20028;-67
2021/12/20 01:37:33;;;;;;;7.85;3.80;;;3.40;99.90;;;;;;5095285;28;20051;-67
2021/12/20 01:39:59;;;;;;;7.28;3.05;;;3.30;99.90;;;;;;5095214;28;20082;-68
2021/12/20 01:42:30;;;;;;;7.15;3.20;;;3.00;99.90;;;;;;5093931;28;20024;-69
2021/12/20 01:44:57;;;;;;;5.35;2.78;;;2.70;99.90;;;;;;5094127;28;20028;-70
2021/12/20 01:47:27;;;;;;;6.65;2.63;;;2.50;99.90;;;;;;5095347;28;20034;-69
2021/12/20 01:50:06;;;;;;;4.68;2.53;;;2.40;99.90;;;;;;5093959;28;20042;-68
2021/12/20 01:52:40;;;;;;;4.85;2.53;;;2.30;99.90;;;;;;5095314;28;20026;-68
2021/12/20 01:55:15;;;;;;;3.10;1.83;;;2.20;99.90;;;;;;5095073;28;20030;-68
2021/12/20 01:57:41;;;;;;;1.73;1.17;;;2.20;99.90;;;;;;5095244;28;20032;-67
2021/12/20 02:00:11;;;;;;;2.17;1.58;;;2.20;99.90;;;;;;5093668;28;20028;-67
2021/12/20 02:02:37;;;;;;;3.40;1.25;;;2.10;99.90;;;;;;5095120;28;20020;-68
2021/12/20 02:05:15;;;;;;;2.13;1.33;;;2.10;99.90;;;;;;5094763;28;20448;-67
2021/12/20 02:08:13;;;;;;;1.38;1.00;;;2.00;99.90;;;;;;5094754;28;20024;-67
2021/12/20 02:10:40;;;;;;;3.42;1.02;;;1.90;99.90;;;;;;5094773;28;20082;-67
2021/12/20 02:13:05;;;;;;;1.20;0.45;;;1.80;99.90;;;;;;5094643;28;20464;-68
2021/12/20 02:15:31;;;;;;;2.03;0.98;;;1.70;99.90;;;;;;5093286;28;20137;-68
2021/12/20 02:17:57;;;;;;;1.33;0.98;;;1.60;99.90;;;;;;5092940;28;20028;-68
2021/12/20 02:20:28;;;;;;;0.75;0.63;;;1.50;99.90;;;;;;5094749;28;20106;-68
2021/12/20 02:22:56;;;;;;;3.63;0.95;;;1.50;99.90;;;;;;5094256;28;20032;-68
2021/12/20 02:25:23;;;;;;;0.77;0.75;;;1.40;99.90;;;;;;5094414;28;20027;-68
2021/12/20 02:27:49;;;;;;;0.65;0.63;;;1.40;99.90;;;;;;5094292;28;20146;-68
2021/12/20 02:30:36;;;;;;;0.80;0.57;;;1.30;99.90;;;;;;5094520;28;20102;-68
2021/12/20 02:38:34;;;;;;;1.10;0.57;;;1.20;99.90;;;;;;5073782;28;20551;-72
2021/12/20 02:41:12;;;;;;;0.40;0.40;;;1.20;99.90;;;;;;5073677;28;20077;-73
2021/12/20 02:43:42;;;;;;;0.80;0.40;;;1.20;99.90;;;;;;5056078;28;20025;-71
2021/12/20 02:49:07;;;;;;;0.25;0.25;;;1.30;99.90;;;;;;5052735;28;20537;-69
2021/12/20 02:51:33;;;;;;;0.50;0.50;;;1.30;99.90;;;;;;5055940;28;20035;-69
2021/12/20 02:54:02;;;;;;;2.03;1.02;;;1.30;99.90;;;;;;5073679;28;20036;-69
2021/12/20 02:56:27;;;;;;;5.22;1.42;;;1.40;99.90;;;;;;5073555;28;20430;-69
2021/12/20 02:58:53;;;;;;;1.98;1.15;;;1.50;99.90;;;;;;5055927;28;20035;-69
2021/12/20 03:01:20;;;;;;;2.92;1.92;;;1.50;99.90;;;;;;5073368;28;20078;-69
2021/12/20 03:03:48;;;;;;;1.58;1.23;;;1.50;99.90;;;;;;5055746;28;20029;-69
2021/12/20 03:06:13;;;;;;;2.40;1.05;;;1.60;99.90;;;;;;5055669;28;20468;-68
2021/12/20 03:08:43;;;;;;;1.33;0.90;;;1.60;99.90;;;;;;5055577;28;20039;-68
2021/12/20 03:11:09;;;;;;;1.05;0.80;;;1.60;99.90;;;;;;5055931;28;20036;-68
2021/12/20 03:13:35;;;;;;;1.42;0.75;;;1.70;99.90;;;;;;5073285;28;20029;-69
2021/12/20 03:16:01;;;;;;;1.20;0.90;;;1.70;99.90;;;;;;5055639;28;20064;-68
2021/12/20 03:18:27;;;;;;;1.25;1.08;;;1.70;99.90;;;;;;5073539;28;20036;-69
2021/12/20 03:20:52;;;;;;;1.70;0.60;;;1.70;99.90;;;;;;5073541;28;20020;-69
2021/12/20 03:23:18;;;;;;;1.15;0.47;;;1.70;99.90;;;;;;5055519;28;20357;-68
2021/12/20 03:25:44;;;;;;;0.82;0.50;;;1.80;99.90;;;;;;5073569;28;20358;-68
2021/12/20 03:28:10;;;;;;;2.65;0.38;;;1.80;99.90;;;;;;5055401;28;20028;-68
2021/12/20 03:30:35;;;;;;;0.88;0.52;;;1.80;99.90;;;;;;5055470;28;20029;-68
2021/12/20 03:33:01;;;;;;;2.13;0.63;;;1.80;99.90;;;;;;5084550;28;20048;-68
2021/12/20 03:35:27;;;;;;;0.77;0.70;;;1.80;99.90;;;;;;5093608;28;20061;-68
2021/12/20 03:37:53;;;;;;;2.65;0.73;;;1.80;99.90;;;;;;5093566;28;20468;-69
2021/12/20 03:40:18;;;;;;;0.75;0.73;;;1.80;99.90;;;;;;5093582;28;20020;-68
2021/12/20 03:42:46;;;;;;;1.10;0.60;;;1.80;99.90;;;;;;5092285;28;20027;-68
2021/12/20 03:45:14;;;;;;;1.50;1.10;;;1.80;99.90;;;;;;5093686;28;20020;-68
2021/12/20 03:47:42;;;;;;;1.50;1.05;;;1.80;99.90;;;;;;5092237;28;20069;-68
2021/12/20 03:50:09;;;;;;;5.70;1.52;;;1.80;99.90;;;;;;5093405;28;20064;-68
2021/12/20 03:52:36;;;;;;;1.45;1.10;;;1.90;99.90;;;;;;5093477;28;20032;-68
2021/12/20 03:55:02;;;;;;;2.63;1.63;;;1.90;99.90;;;;;;5092146;28;20058;-68
2021/12/20 03:57:27;;;;;;;3.70;1.05;;;1.90;99.90;;;;;;5095026;28;20089;-68
2021/12/20 03:59:53;;;;;;;1.45;1.02;;;1.90;99.90;;;;;;5097177;28;20470;-68
2021/12/20 04:02:21;;;;;;;1.67;1.20;;;1.90;99.90;;;;;;5097245;28;20026;-68
2021/12/20 04:04:47;;;;;;;4.30;1.10;;;2.00;99.90;;;;;;5095773;28;20115;-68
2021/12/20 04:07:12;;;;;;;2.00;1.30;;;2.00;99.90;;;;;;5095871;28;20456;-68
2021/12/20 04:09:38;;;;;;;1.98;1.05;;;2.00;99.90;;;;;;5097022;28;20035;-68
2021/12/20 04:12:04;;;;;;;2.72;1.20;;;2.00;99.90;;;;;;5097129;28;20085;-68
2021/12/20 04:14:30;;;;;;;1.42;1.02;;;2.00;99.90;;;;;;5096903;28;20032;-68
2021/12/20 04:16:55;;;;;;;1.40;1.00;;;2.10;99.90;;;;;;5097106;28;20031;-68
2021/12/20 04:19:21;;;;;;;1.27;0.88;;;2.10;99.90;;;;;;5096746;28;20024;-68
2021/12/20 04:21:47;;;;;;;1.70;1.33;;;2.10;99.90;;;;;;5097006;28;20095;-68
2021/12/20 04:24:12;;;;;;;1.70;1.30;;;2.10;99.90;;;;;;5096675;28;20051;-68
2021/12/20 04:26:38;;;;;;;2.40;1.13;;;2.10;99.90;;;;;;5095374;28;20028;-68
2021/12/20 04:29:04;;;;;;;2.17;1.25;;;2.10;99.90;;;;;;5096691;28;20035;-68
2021/12/20 04:31:31;;;;;;;2.17;0.98;;;2.10;99.90;;;;;;5092811;28;20057;-68
2021/12/20 04:33:56;;;;;;;2.72;1.20;;;2.10;99.90;;;;;;5076382;28;20063;-68
2021/12/20 04:36:22;;;;;;;2.70;1.38;;;2.10;99.90;;;;;;5076253;28;20114;-68
2021/12/20 04:38:48;;;;;;;3.17;1.63;;;2.10;99.90;;;;;;5076173;28;20028;-68
2021/12/20 04:41:13;;;;;;;2.47;1.35;;;2.10;99.90;;;;;;5058141;28;20028;-68
2021/12/20 04:43:39;;;;;;;2.58;1.33;;;2.10;99.90;;;;;;5076024;28;20107;-68
2021/12/20 04:46:05;;;;;;;1.83;1.40;;;2.10;99.90;;;;;;5076321;28;20063;-68
2021/12/20 04:48:31;;;;;;;1.40;1.25;;;2.10;99.90;;;;;;5075896;28;20032;-68
2021/12/20 04:50:57;;;;;;;2.47;1.50;;;2.10;99.90;;;;;;5075757;28;20051;-68
2021/12/20 04:53:23;;;;;;;2.75;1.55;;;2.20;99.90;;;;;;5076173;28;20025;-68
2021/12/20 04:55:48;;;;;;;2.95;1.73;;;2.10;99.90;;;;;;5075560;28;20035;-67
2021/12/20 04:58:15;;;;;;;3.10;1.45;;;2.10;99.90;;;;;;5075804;28;20103;-67
2021/12/20 05:00:41;;;;;;;2.30;1.60;;;2.10;99.90;;;;;;5057806;28;20060;-67
2021/12/20 05:03:07;;;;;;;3.33;1.48;;;2.10;99.90;;;;;;5057847;28;20082;-68
2021/12/20 05:05:34;;;;;;;3.35;2.10;;;2.20;99.90;;;;;;5075515;28;20031;-68
2021/12/20 05:08:01;;;;;;;3.10;1.95;;;2.20;99.90;;;;;;5075159;28;20452;-68
2021/12/20 05:10:29;;;;;;;2.75;1.85;;;2.20;99.90;;;;;;5057178;28;20087;-68
2021/12/20 05:12:57;;;;;;;3.78;1.60;;;2.20;99.90;;;;;;5075557;28;20024;-67
2021/12/20 05:15:24;;;;;;;2.08;1.23;;;2.20;99.90;;;;;;5075464;28;20095;-67
2021/12/20 05:17:50;;;;;;;2.75;1.80;;;2.20;99.90;;;;;;5075124;28;20028;-67
2021/12/20 05:20:17;;;;;;;2.38;1.13;;;2.10;99.90;;;;;;5075409;28;20461;-68
2021/12/20 05:22:43;;;;;;;6.63;1.60;;;2.10;99.90;;;;;;5057361;28;20033;-68
2021/12/20 05:25:09;;;;;;;2.30;1.30;;;2.10;99.90;;;;;;5057335;28;20054;-68
2021/12/20 05:27:35;;;;;;;1.88;1.45;;;2.10;99.90;;;;;;5075213;28;20043;-68
2021/12/20 05:30:01;;;;;;;3.22;1.23;;;2.00;99.90;;;;;;5075175;28;20032;-68
2021/12/20 05:32:27;;;;;;;1.58;0.90;;;2.00;99.90;;;;;;5076964;28;20071;-67
2021/12/20 05:34:52;;;;;;;7.18;1.48;;;2.10;99.90;;;;;;5093972;28;20119;-68
2021/12/20 05:37:18;;;;;;;9.65;1.55;;;2.10;99.90;;;;;;5095469;28;20039;-68
2021/12/20 05:39:45;;;;;;;2.05;1.30;;;2.10;99.90;;;;;;5094685;28;20028;-68
2021/12/20 05:42:11;;;;;;;1.45;0.98;;;2.10;99.90;;;;;;5093834;28;20020;-68
2021/12/20 05:44:37;;;;;;;1.50;1.17;;;2.00;99.90;;;;;;5095063;28;20073;-68
2021/12/20 05:47:03;;;;;;;2.08;0.88;;;2.00;99.90;;;;;;5095022;28;20024;-67
2021/12/20 05:49:31;;;;;;;0.95;0.82;;;1.90;99.90;;;;;;5094926;28;20393;-67
2021/12/20 05:52:03;;;;;;;5.80;1.03;;;1.90;99.90;;;;;;5094970;28;20107;-68
2021/12/20 05:54:30;;;;;;;2.85;0.80;;;1.90;99.90;;;;;;5093702;28;20027;-66
2021/12/20 05:56:55;;;;;;;1.10;0.80;;;1.90;99.90;;;;;;5094957;28;20476;-66
2021/12/20 05:59:21;;;;;;;0.80;0.70;;;1.90;99.90;;;;;;5094790;28;20036;-67
2021/12/20 06:01:47;;;;;;;0.82;0.70;;;1.90;99.90;;;;;;5093471;28;20039;-67
2021/12/20 06:04:13;;;;;;;1.52;0.90;;;1.90;99.90;;;;;;5093543;28;20024;-66
2021/12/20 06:06:39;;;;;;;1.42;0.90;;;1.90;99.90;;;;;;5094572;28;20028;-67
2021/12/20 06:09:06;;;;;;;3.22;1.20;;;1.90;99.90;;;;;;5093391;28;20111;-67
2021/12/20 06:11:32;;;;;;;1.23;0.70;;;1.90;99.90;;;;;;5093372;28;20024;-67
2021/12/20 06:13:58;;;;;;;2.90;1.02;;;1.90;99.90;;;;;;5093216;28;20070;-67
2021/12/20 06:16:24;;;;;;;1.60;0.90;;;2.00;99.90;;;;;;5094521;28;20028;-68
2021/12/20 06:18:51;;;;;;;3.00;1.15;;;2.00;99.90;;;;;;5094437;28;20028;-67
2021/12/20 06:21:18;;;;;;;3.90;1.17;;;2.00;99.90;;;;;;5094657;28;20464;-67
2021/12/20 06:23:43;;;;;;;2.08;0.90;;;1.90;99.90;;;;;;5093687;28;20044;-67
2021/12/20 06:26:09;;;;;;;3.13;1.33;;;1.90;99.90;;;;;;5094615;28;20367;-68
2021/12/20 06:28:35;;;;;;;2.70;1.20;;;1.90;99.90;;;;;;5092900;28;20036;-67
2021/12/20 06:31:01;;;;;;;3.20;1.08;;;1.90;99.90;;;;;;5094272;28;20072;-67
2021/12/20 06:33:27;;;;;;;1.50;1.20;;;1.90;99.90;;;;;;5073769;28;20060;-67
2021/12/20 06:35:54;;;;;;;2.95;1.15;;;2.00;99.90;;;;;;5055909;28;20384;-67
2021/12/20 06:38:21;;;;;;;2.22;0.75;;;2.00;99.90;;;;;;5055861;28;20032;-67
2021/12/20 06:40:51;;;;;;;1.83;1.20;;;2.00;99.90;;;;;;5073861;28;20024;-67
2021/12/20 06:43:17;;;;;;;5.30;1.38;;;2.10;99.90;;;;;;5056065;28;20028;-67
2021/12/20 06:45:43;;;;;;;4.05;1.33;;;2.10;99.90;;;;;;5073503;28;20029;-67
2021/12/20 06:48:09;;;;;;;4.18;1.10;;;2.10;99.90;;;;;;5073726;28;20044;-67
2021/12/20 06:50:35;;;;;;;3.92;1.73;;;2.00;99.90;;;;;;5055834;28;20082;-67
2021/12/20 06:53:01;;;;;;;3.45;1.50;;;2.00;99.90;;;;;;5073848;28;20032;-67
2021/12/20 06:55:27;;;;;;;1.73;1.35;;;1.90;99.90;;;;;;5073398;28;20058;-67
2021/12/20 06:57:52;;;;;;;8.50;1.75;;;1.90;99.90;;;;;;5055720;28;20028;-67
2021/12/20 07:00:18;;;;;;;3.63;1.40;;;1.90;99.90;;;;;;5073700;28;20029;-67
2021/12/20 07:02:44;;;;;;;2.95;1.58;;;1.90;99.90;;;;;;5073259;28;20093;-67
2021/12/20 07:05:10;;;;;;;1.65;1.10;;;1.90;99.90;;;;;;5055693;28;20025;-68
2021/12/20 07:07:36;;;;;;;2.20;1.00;;;2.00;99.90;;;;;;5073672;28;20081;-67
2021/12/20 07:10:05;;;;;;;1.30;1.05;;;2.00;99.90;;;;;;5055630;28;20032;-67
2021/12/20 07:12:34;;;;;;;1.95;1.08;;;2.00;99.90;;;;;;5073538;28;20024;-67
2021/12/20 07:15:00;;;;;;;1.88;0.95;;;2.00;99.90;;;;;;5073686;28;20102;-67
2021/12/20 07:17:26;;;;;;;2.63;1.13;;;2.00;99.90;;;;;;5073685;28;20064;-67
2021/12/20 07:19:51;;;;;;;1.65;1.08;;;1.90;99.90;;;;;;5073538;28;20040;-67
2021/12/20 07:22:17;;;;;;;2.38;1.23;;;1.90;99.90;;;;;;5055615;28;20035;-67
2021/12/20 07:24:43;;;;;;;3.47;1.10;;;1.90;99.90;;;;;;5055604;28;20025;-67
2021/12/20 07:27:10;;;;;;;1.45;1.33;;;1.90;99.90;;;;;;5073204;28;20020;-67
2021/12/20 07:29:37;;;;;;;2.33;0.98;;;1.90;99.90;;;;;;5073315;28;20455;-67
2021/12/20 07:32:04;;;;;;;7.72;1.48;;;1.90;99.90;;;;;;5069229;28;20097;-67
2021/12/20 07:34:30;;;;;;;3.35;0.95;;;1.80;99.90;;;;;;5097892;28;20028;-67
2021/12/20 07:36:55;;;;;;;5.40;1.40;;;1.80;99.90;;;;;;5097977;28;20028;-67
2021/12/20 07:39:21;;;;;;;2.13;0.82;;;1.80;99.90;;;;;;5097287;28;20032;-67
2021/12/20 07:41:48;;;;;;;1.88;0.80;;;1.90;99.90;;;;;;5097448;28;20443;-67
2021/12/20 07:44:14;;;;;;;7.60;1.13;;;1.80;99.90;;;;;;5097486;28;20479;-67
2021/12/20 07:46:40;;;;;;;2.92;1.23;;;1.90;99.90;;;;;;5097628;28;20107;-67
2021/12/20 07:49:06;;;;;;;0.80;0.80;;;1.90;99.90;;;;;;5097451;28;20116;-67
2021/12/20 07:51:31;;;;;;;1.48;0.90;;;2.00;99.90;;;;;;5097485;28;20365;-67
2021/12/20 07:53:57;;;;;;;2.80;0.88;;;2.00;99.90;;;;;;5097264;28;20028;-67
2021/12/20 07:56:23;;;;;;;1.33;0.63;;;2.00;99.90;;;;;;5096909;28;20448;-67
2021/12/20 07:58:48;;;;;;;1.80;1.00;;;2.00;99.90;;;;;;5095983;28;20024;-67
2021/12/20 08:01:16;;;;;;;1.30;0.88;;;2.10;99.90;;;;;;5096301;28;20130;-67
2021/12/20 08:03:42;;;;;;;1.33;0.60;;;2.10;99.90;;;;;;5097368;28;20031;-67
2021/12/20 08:06:08;;;;;;;1.98;0.90;;;2.10;99.90;;;;;;5097413;28;20024;-67
2021/12/20 08:08:34;;;;;;;7.15;1.30;;;2.10;99.90;;;;;;5096049;28;20093;-67
2021/12/20 08:11:00;;;;;;;1.50;0.88;;;2.20;99.90;;;;;;5096008;28;20028;-67
2021/12/20 08:13:26;;;;;;;1.73;0.82;;;2.20;99.90;;;;;;5097449;28;20513;-67
2021/12/20 08:15:51;;;;;;;1.38;0.70;;;2.30;99.90;;;;;;5097046;28;20489;-67
2021/12/20 08:18:17;;;;;;;2.60;1.10;;;2.40;99.90;;;;;;5095718;28;20024;-67
2021/12/20 08:20:43;;;;;;;2.17;1.08;;;2.40;99.90;;;;;;5096781;28;20474;-66
2021/12/20 08:23:08;;;;;;;3.28;1.05;;;2.50;99.90;;;;;;5096780;28;20020;-66
2021/12/20 08:25:36;;;;;;;3.60;1.10;;;2.60;99.90;;;;;;5097097;28;20169;-67
2021/12/20 08:28:02;;;;;;;1.38;0.95;;;2.80;99.90;;;;;;5096549;28;20021;-66
2021/12/20 08:30:29;;;;;;;3.55;1.50;;;3.10;99.90;;;;;;5096643;28;20032;-66
2021/12/20 08:32:54;;;;;;;4.93;1.20;;;3.40;99.90;;;;;;5095188;28;20056;-67
2021/12/20 08:35:20;;;;;;;1.42;0.70;;;3.90;99.90;;;;;;5096630;28;20024;-67
2021/12/20 08:37:47;;;;;;;6.20;1.02;;;4.20;99.90;;;;;;5095695;28;20408;-66
2021/12/20 08:40:15;;;;;;;1.30;0.93;;;4.30;99.90;;;;;;5095040;28;20537;-67
2021/12/20 08:42:42;;;;;;;7.60;0.90;;;4.70;99.90;;;;;;5096387;28;20025;-66
2021/12/20 08:45:09;;;;;;;1.55;0.80;;;4.90;99.90;;;;;;5095641;28;20106;-66
2021/12/20 08:47:35;;;;;;;6.03;0.73;;;5.00;99.90;;;;;;5096514;28;20039;-66
2021/12/20 08:50:03;;;;;;;2.60;1.20;;;5.00;99.90;;;;;;5096192;28;20028;-66
2021/12/20 08:52:29;;;;;;;2.83;0.90;;;5.10;99.90;;;;;;5094891;28;20024;-66
2021/12/20 08:54:55;;;;;;;1.80;0.73;;;5.10;99.90;;;;;;5096428;28;20036;-66
2021/12/20 08:57:20;;;;;;;3.97;1.10;;;5.10;99.90;;;;;;5094890;28;20498;-66
2021/12/20 08:59:46;;;;;;;1.50;0.63;;;5.10;99.90;;;;;;5096293;28;20028;-66
2021/12/20 09:02:12;;;;;;;1.33;0.80;;;5.00;99.90;;;;;;5095960;28;20051;-66
2021/12/20 09:04:38;;;;;;;2.72;0.75;;;5.10;99.90;;;;;;5095971;28;20032;-67
2021/12/20 09:07:05;;;;;;;1.15;0.68;;;5.10;99.90;;;;;;5094713;28;20032;-66
2021/12/20 09:09:37;;;;;;;2.88;0.75;;;5.20;99.90;;;;;;5095799;28;20420;-67
2021/12/20 09:12:05;;;;;;;1.25;0.95;;;5.30;99.90;;;;;;5095875;28;20077;-67
2021/12/20 09:14:33;;;;;;;1.83;0.60;;;5.10;99.90;;;;;;5095433;28;20020;-66
2021/12/20 09:17:00;;;;;;;3.67;0.70;;;5.10;99.90;;;;;;5095800;28;20036;-66
2021/12/20 09:19:26;;;;;;;1.45;0.60;;;5.10;99.90;;;;;;5095709;28;20121;-66
2021/12/20 09:21:51;;;;;;;1.20;0.65;;;5.40;99.90;;;;;;5094361;28;20024;-66
2021/12/20 09:24:17;;;;;;;1.48;0.73;;;5.50;99.90;;;;;;5094227;28;20076;-66
2021/12/20 09:26:43;;;;;;;1.83;0.57;;;5.60;99.90;;;;;;5095745;28;20065;-66
2021/12/20 09:29:08;;;;;;;3.80;0.80;;;5.70;99.90;;;;;;5095243;28;20110;-66
2021/12/20 09:31:34;;;;;;;1.50;0.65;;;5.80;99.90;;;;;;5090684;28;20044;-66
2021/12/20 09:34:00;;;;;;;1.70;0.70;;;6.00;99.90;;;;;;5057143;28;20383;-66
2021/12/20 09:36:29;;;;;;;5.10;1.02;;;6.40;99.90;;;;;;5075496;28;20028;-67
2021/12/20 09:38:58;;;;;;;;;;;6.70;99.90;;;;;;5057311;28;20453;-66
2021/12/20 09:42:00;;;;;;;3.33;0.40;;;6.60;99.90;;;;;;5056980;28;19912;-66
2021/12/20 09:44:18;;;;;;;2.72;0.63;;;6.40;99.90;;;;;;5074224;28;20116;-66
2021/12/20 09:46:44;;;;;;;2.03;0.80;;;6.50;99.90;;;;;;5057048;28;20025;-66
2021/12/20 09:49:10;;;;;;;3.25;0.40;;;6.00;99.90;;;;;;5074584;28;20047;-66
2021/12/20 09:51:36;;;;;;;1.92;0.70;;;6.00;99.90;;;;;;5075255;28;20393;-66
2021/12/20 09:54:05;;;;;;;1.67;0.57;;;5.80;99.90;;;;;;5057247;28;20441;-66
2021/12/20 09:56:33;;;;;;;2.97;0.68;;;5.60;99.90;;;;;;5056442;28;20388;-71
2021/12/20 09:59:00;;;;;;;0.88;0.47;;;5.20;99.90;;;;;;5074552;28;20468;-66
2021/12/20 10:01:28;;;;;;;3.28;0.77;;;5.30;99.90;;;;;;5074554;28;20020;-66
2021/12/20 10:03:54;;;;;;;1.17;0.70;;;5.20;99.90;;;;;;5056562;28;20036;-66
2021/12/20 10:06:20;;;;;;;0.98;0.38;;;5.30;99.90;;;;;;5074463;28;20021;-66
2021/12/20 10:08:52;;;;;;;3.10;0.65;;;5.20;99.90;;;;;;5074007;28;20120;-66
2021/12/20 10:11:29;;;;;;;1.55;0.60;;;5.20;99.90;;;;;;5074339;28;20021;-67
2021/12/20 10:14:06;;;;;;;3.85;1.50;;;5.20;99.90;;;;;;5074346;28;20123;-66
2021/12/20 10:16:34;;;;;;;2.67;0.40;;;4.90;99.90;;;;;;5074087;28;20028;-66
2021/12/20 10:19:00;;;;;;;3.05;0.80;;;4.60;99.90;;;;;;5074488;28;20439;-66
2021/12/20 10:21:41;;;;;;;1.27;0.60;;;4.70;99.90;;;;;;5074295;28;20031;-67
2021/12/20 10:24:07;;;;;;;2.85;0.70;;;4.80;99.90;;;;;;5074130;28;20028;-67
2021/12/20 10:26:41;;;;;;;1.90;0.40;;;4.70;99.90;;;;;;5073839;28;20025;-67
2021/12/20 10:29:21;;;;;;;1.55;0.52;;;4.60;99.90;;;;;;5056445;28;20051;-67
2021/12/20 10:31:48;;;;;;;1.85;0.45;;;4.90;99.90;;;;;;5065195;28;20036;-67
2021/12/20 10:34:14;;;;;;;0.73;0.20;;;4.90;99.90;;;;;;5094285;28;20077;-67
2021/12/20 10:36:57;;;;;;;2.20;0.30;;;5.10;99.90;;;;;;5093252;28;20435;-67
2021/12/20 10:39:34;;;;;;;1.88;0.60;;;5.10;99.90;;;;;;5093038;28;20024;-67
2021/12/20 10:42:15;;;;;;;0.60;0.30;;;5.00;99.90;;;;;;5094177;28;20050;-67
2021/12/20 10:44:40;;;;;;;1.27;0.40;;;5.00;99.90;;;;;;5094151;28;20025;-67
2021/12/20 10:47:06;;;;;;;2.45;0.40;;;5.00;99.90;;;;;;5094067;28;20046;-67
2021/12/20 10:49:32;;;;;;;4.82;0.90;;;4.70;99.90;;;;;;5093044;28;20032;-67
2021/12/20 10:51:59;;;;;;;1.52;0.70;;;4.60;99.90;;;;;;5094065;28;20384;-67
2021/12/20 10:54:31;;;;;;;0.82;0.28;;;4.40;99.90;;;;;;5092741;28;20407;-67
2021/12/20 10:57:05;;;;;;;0.98;0.63;;;4.90;99.90;;;;;;5092654;28;20111;-67
2021/12/20 10:59:36;;;;;;;1.77;0.50;;;4.90;99.90;;;;;;5092753;28;20059;-67
2021/12/20 11:03:11;;;;;;;2.05;0.65;;;4.90;99.90;;;;;;5093867;28;20052;-67
2021/12/20 11:05:01;;;;;;;1.35;0.40;;;4.80;99.90;;;;;;5091574;28;20429;-67
2021/12/20 11:10:07;;;;;;;2.50;0.30;;;4.30;99.90;;;;;;5093832;28;20384;-67
2021/12/20 11:12:33;;;;;;;1.95;0.40;;;4.20;99.90;;;;;;5093786;28;20538;-67
2021/12/20 11:15:12;;;;;;;3.22;0.40;;;4.10;99.90;;;;;;5092517;28;20119;-67
2021/12/20 11:17:43;;;;;;;;;;;4.10;99.90;;;;;;5094101;28;20468;-67
2021/12/20 11:20:09;;;;;;;2.33;0.30;;;4.00;99.90;;;;;;5092499;28;20248;-67
2021/12/20 11:22:34;;;;;;;1.23;0.40;;;3.90;99.90;;;;;;5092556;28;20045;-66
2021/12/20 11:25:11;;;;;;;1.50;0.35;;;3.90;99.90;;;;;;5092532;28;20024;-67
2021/12/20 11:27:51;;;;;;;3.72;0.30;;;3.80;99.90;;;;;;5092397;28;20051;-67
2021/12/20 11:30:20;;;;;;;0.52;0.22;;;3.80;99.90;;;;;;5092294;28;20127;-67
2021/12/20 11:32:47;;;;;;;4.82;0.30;;;3.80;99.90;;;;;;5079637;28;20048;-67
2021/12/20 11:35:20;;;;;;;1.65;0.50;;;3.80;99.90;;;;;;5055433;28;20037;-66
2021/12/20 11:37:46;;;;;;;1.25;0.40;;;3.80;99.90;;;;;;5055422;28;20025;-67
2021/12/20 11:40:14;;;;;;;2.20;0.47;;;3.80;99.90;;;;;;5073360;28;20141;-66
2021/12/20 11:42:40;;;;;;;5.97;0.55;;;3.80;99.90;;;;;;5073303;28;20028;-66
2021/12/20 11:45:08;;;;;;;2.95;0.30;;;3.70;99.90;;;;;;5073311;28;20358;-66
2021/12/20 11:47:36;;;;;;;5.18;0.63;;;3.70;99.90;;;;;;5055365;28;20024;-66
2021/12/20 11:50:07;;;;;;;4.65;0.30;;;3.70;99.90;;;;;;5055131;28;20447;-67
2021/12/20 11:52:35;;;;;;;5.97;0.28;;;3.70;99.90;;;;;;5073454;28;20021;-66
2021/12/20 11:55:17;;;;;;;4.18;0.50;;;3.70;99.90;;;;;;5072953;28;20052;-66
2021/12/20 11:57:45;;;;;;;0.50;0.40;;;3.70;99.90;;;;;;5055621;28;20127;-66
2021/12/20 12:00:25;;;;;;;3.53;0.52;;;3.80;99.90;;;;;;5055293;28;20056;-66
2021/12/20 12:02:58;;;;;;;1.90;0.22;;;3.70;99.90;;;;;;5073259;28;20035;-67
2021/12/20 12:05:39;;;;;;;1.90;0.50;;;3.80;99.90;;;;;;5055887;28;20119;-66
2021/12/20 12:08:25;;;;;;;1.55;0.30;;;3.80;99.90;;;;;;5073114;28;20021;-67
2021/12/20 12:10:53;;;;;;;3.75;0.47;;;3.70;99.90;;;;;;5072755;28;20106;-67
2021/12/20 12:13:19;;;;;;;3.63;0.60;;;3.70;99.90;;;;;;5073071;28;20054;-66
2021/12/20 12:16:04;;;;;;;1.67;0.60;;;3.60;99.90;;;;;;5055037;28;20735;-67
2021/12/20 12:18:51;;;;;;;0.25;0.22;;;3.60;99.90;;;;;;5074803;28;20025;-67
2021/12/20 12:21:32;;;;;;;3.22;0.57;;;3.60;99.90;;;;;;5058594;28;20024;-67
2021/12/20 12:23:59;;;;;;;1.50;0.60;;;3.50;99.90;;;;;;5076395;28;20055;-67
2021/12/20 12:26:34;;;;;;;2.17;0.57;;;3.50;99.90;;;;;;5076247;28;20030;-67
2021/12/20 12:29:02;;;;;;;2.83;0.40;;;3.50;99.90;;;;;;5075939;28;20056;-67
2021/12/20 12:32:01;;;;;;;4.80;0.75;;;3.40;99.90;;;;;;5076217;28;20049;-68
2021/12/20 12:34:40;;;;;;;1.38;0.17;;;3.40;99.90;;;;;;5059050;28;20029;-67
2021/12/20 12:37:33;;;;;;;0.75;0.35;;;3.40;99.90;;;;;;5076464;28;20579;-67
2021/12/20 12:40:22;;;;;;;1.98;0.40;;;3.40;99.90;;;;;;5076571;28;20040;-67
2021/12/20 12:42:53;;;;;;;0.52;0.30;;;3.40;99.90;;;;;;5076150;28;20063;-67
2021/12/20 12:45:48;;;;;;;1.48;0.40;;;3.40;99.90;;;;;;5076374;28;20052;-66
2021/12/20 12:48:38;;;;;;;3.00;0.32;;;3.30;99.90;;;;;;5058054;28;20078;-67
2021/12/20 12:51:19;;;;;;;1.10;0.55;;;3.30;99.90;;;;;;5076024;28;20020;-67
2021/12/20 12:53:48;;;;;;;0.70;0.50;;;3.30;99.90;;;;;;5075915;28;20118;-67
2021/12/20 12:56:28;;;;;;;8.30;0.40;;;3.30;99.90;;;;;;5058096;28;20027;-67
2021/12/20 12:59:12;;;;;;;1.40;0.35;;;3.30;99.90;;;;;;5075917;28;20401;-67
2021/12/20 13:01:40;;;;;;;1.00;0.60;;;3.40;99.90;;;;;;5058059;28;20028;-67
2021/12/20 13:04:06;;;;;;;1.25;0.50;;;3.30;99.90;;;;;;5075393;28;20028;-67
2021/12/20 13:06:32;;;;;;;4.63;0.50;;;3.30;99.90;;;;;;5075647;28;20083;-67
2021/12/20 13:09:00;;;;;;;0.90;0.32;;;3.30;99.90;;;;;;5075544;28;20036;-67
2021/12/20 13:11:26;;;;;;;1.00;0.50;;;3.40;99.90;;;;;;5075332;28;20358;-67
2021/12/20 13:14:13;;;;;;;2.55;0.90;;;3.40;99.90;;;;;;5057503;28;20028;-67
2021/12/20 13:16:58;;;;;;;1.10;0.52;;;3.40;99.90;;;;;;5058125;28;20380;-67
2021/12/20 13:19:35;;;;;;;0.55;0.40;;;3.40;99.90;;;;;;5057491;28;20468;-67